sensor_id;sensor_type;location;lat;lon;timestamp;pressure;altitude;pressure_sealevel;temperature;humidity
62703;BME280;66022;50.448;18.122;2023-02-13T00:00:09;101241.30;;;4.01;90.75
62703;BME280;66022;50.448;18.122;2023-02-13T00:04:22;101240.05;;;4.01;90.35
62703;BME280;66022;50.448;18.122;2023-02-13T00:08:36;101239.06;;;3.96;91.21
62703;BME280;66022;50.448;18.122;2023-02-13T00:12:50;101240.08;;;3.97;90.20
62703;BME280;66022;50.448;18.122;2023-02-13T00:17:04;101240.93;;;3.95;93.80
62703;BME280;66022;50.448;18.122;2023-02-13T00:21:18;101241.65;;;3.96;90.64
62703;BME280;66022;50.448;18.122;2023-02-13T00:25:32;101242.96;;;3.98;90.07
62703;BME280;66022;50.448;18.122;2023-02-13T00:29:46;101243.24;;;3.99;90.63
62703;BME280;66022;50.448;18.122;2023-02-13T00:34:00;101243.10;;;4.02;90.00
62703;BME280;66022;50.448;18.122;2023-02-13T00:38:14;101242.47;;;4.02;91.03
62703;BME280;66022;50.448;18.122;2023-02-13T00:42:28;101240.69;;;4.02;90.59
62703;BME280;66022;50.448;18.122;2023-02-13T00:46:42;101240.91;;;3.97;94.84
62703;BME280;66022;50.448;18.122;2023-02-13T00:50:56;101239.43;;;3.95;91.35
62703;BME280;66022;50.448;18.122;2023-02-13T00:55:10;101237.84;;;3.95;91.24
62703;BME280;66022;50.448;18.122;2023-02-13T00:59:24;101234.26;;;3.94;91.43
62703;BME280;66022;50.448;18.122;2023-02-13T01:03:38;101234.17;;;3.97;90.88
62703;BME280;66022;50.448;18.122;2023-02-13T01:07:52;101233.94;;;3.98;92.24
62703;BME280;66022;50.448;18.122;2023-02-13T01:12:06;101232.72;;;4.00;90.65
62703;BME280;66022;50.448;18.122;2023-02-13T01:16:20;101232.26;;;3.97;93.32
62703;BME280;66022;50.448;18.122;2023-02-13T01:20:34;101231.89;;;3.98;91.00
62703;BME280;66022;50.448;18.122;2023-02-13T01:24:48;101231.75;;;3.97;91.14
62703;BME280;66022;50.448;18.122;2023-02-13T01:29:02;101231.28;;;3.93;92.12
62703;BME280;66022;50.448;18.122;2023-02-13T01:33:16;101229.47;;;3.94;91.22
62703;BME280;66022;50.448;18.122;2023-02-13T01:37:30;101227.26;;;3.94;92.96
62703;BME280;66022;50.448;18.122;2023-02-13T01:41:44;101224.66;;;3.98;90.85
62703;BME280;66022;50.448;18.122;2023-02-13T01:45:58;101223.35;;;4.02;90.86
62703;BME280;66022;50.448;18.122;2023-02-13T01:50:15;101219.60;;;4.05;90.73
62703;BME280;66022;50.448;18.122;2023-02-13T01:54:27;101217.08;;;4.09;90.46
62703;BME280;66022;50.448;18.122;2023-02-13T01:58:40;101215.63;;;4.06;91.71
62703;BME280;66022;50.448;18.122;2023-02-13T02:02:55;101213.71;;;4.06;91.06
62703;BME280;66022;50.448;18.122;2023-02-13T02:07:12;101210.24;;;4.04;94.29
62703;BME280;66022;50.448;18.122;2023-02-13T02:15:36;101203.11;;;4.09;90.93
62703;BME280;66022;50.448;18.122;2023-02-13T02:32:41;101193.14;;;4.11;91.79
62703;BME280;66022;50.448;18.122;2023-02-13T02:36:56;101189.54;;;4.09;95.26
62703;BME280;66022;50.448;18.122;2023-02-13T02:49:28;101183.47;;;4.15;92.28
62703;BME280;66022;50.448;18.122;2023-02-13T03:02:10;101184.67;;;4.18;91.90
62703;BME280;66022;50.448;18.122;2023-02-13T03:10:38;101187.40;;;4.17;93.09
62703;BME280;66022;50.448;18.122;2023-02-13T03:14:52;101187.42;;;4.18;92.34
62703;BME280;66022;50.448;18.122;2023-02-13T03:19:11;101187.55;;;4.19;92.45
62703;BME280;66022;50.448;18.122;2023-02-13T03:23:22;101187.08;;;4.22;91.84
62703;BME280;66022;50.448;18.122;2023-02-13T03:31:51;101184.16;;;4.28;91.33
62703;BME280;66022;50.448;18.122;2023-02-13T03:36:08;101184.33;;;4.27;92.79
62703;BME280;66022;50.448;18.122;2023-02-13T03:40:21;101184.81;;;4.29;91.49
62703;BME280;66022;50.448;18.122;2023-02-13T03:44:32;101183.76;;;4.33;91.32
62703;BME280;66022;50.448;18.122;2023-02-13T03:48:44;101183.53;;;4.31;92.11
62703;BME280;66022;50.448;18.122;2023-02-13T03:57:13;101184.83;;;4.35;94.97
62703;BME280;66022;50.448;18.122;2023-02-13T04:01:27;101184.86;;;4.38;91.90
62703;BME280;66022;50.448;18.122;2023-02-13T04:05:42;101184.69;;;4.41;91.50
62703;BME280;66022;50.448;18.122;2023-02-13T04:09:54;101184.75;;;4.42;92.09
62703;BME280;66022;50.448;18.122;2023-02-13T04:14:10;101184.86;;;4.45;91.18
62703;BME280;66022;50.448;18.122;2023-02-13T04:18:23;101182.26;;;4.43;92.12
62703;BME280;66022;50.448;18.122;2023-02-13T04:26:50;101178.06;;;4.44;94.81
62703;BME280;66022;50.448;18.122;2023-02-13T04:31:04;101176.08;;;4.45;90.90
62703;BME280;66022;50.448;18.122;2023-02-13T04:35:18;101175.62;;;4.45;90.63
62703;BME280;66022;50.448;18.122;2023-02-13T04:39:32;101174.81;;;4.43;90.91
62703;BME280;66022;50.448;18.122;2023-02-13T04:43:46;101173.64;;;4.43;90.11
62703;BME280;66022;50.448;18.122;2023-02-13T04:48:00;101171.01;;;4.42;91.09
62703;BME280;66022;50.448;18.122;2023-02-13T04:52:14;101170.04;;;4.41;90.31
62703;BME280;66022;50.448;18.122;2023-02-13T04:56:28;101169.34;;;4.34;94.29
62703;BME280;66022;50.448;18.122;2023-02-13T05:00:42;101168.36;;;4.35;90.60
62703;BME280;66022;50.448;18.122;2023-02-13T05:04:56;101167.32;;;4.36;90.54
62703;BME280;66022;50.448;18.122;2023-02-13T05:09:10;101168.35;;;4.35;91.10
62703;BME280;66022;50.448;18.122;2023-02-13T05:13:24;101169.81;;;4.35;90.56
62703;BME280;66022;50.448;18.122;2023-02-13T05:17:38;101172.41;;;4.34;91.93
62703;BME280;66022;50.448;18.122;2023-02-13T05:21:52;101174.11;;;4.33;91.06
62703;BME280;66022;50.448;18.122;2023-02-13T05:26:06;101174.11;;;4.30;92.37
62703;BME280;66022;50.448;18.122;2023-02-13T05:30:23;101174.45;;;4.30;90.66
62703;BME280;66022;50.448;18.122;2023-02-13T05:34:35;101173.72;;;4.32;90.37
62703;BME280;66022;50.448;18.122;2023-02-13T05:38:48;101172.66;;;4.29;91.02
62703;BME280;66022;50.448;18.122;2023-02-13T05:43:02;101170.21;;;4.31;90.22
62703;BME280;66022;50.448;18.122;2023-02-13T05:47:16;101168.45;;;4.30;92.36
62703;BME280;66022;50.448;18.122;2023-02-13T05:51:30;101166.96;;;4.30;90.19
62703;BME280;66022;50.448;18.122;2023-02-13T05:55:45;101167.00;;;4.29;90.40
62703;BME280;66022;50.448;18.122;2023-02-13T05:59:58;101168.27;;;4.27;91.20
62703;BME280;66022;50.448;18.122;2023-02-13T06:04:12;101170.97;;;4.28;90.43
62703;BME280;66022;50.448;18.122;2023-02-13T06:08:26;101173.21;;;4.26;91.70
62703;BME280;66022;50.448;18.122;2023-02-13T06:12:41;101176.28;;;4.30;90.64
62703;BME280;66022;50.448;18.122;2023-02-13T06:16:54;101178.97;;;4.31;93.91
62703;BME280;66022;50.448;18.122;2023-02-13T06:21:08;101181.81;;;4.36;90.42
62703;BME280;66022;50.448;18.122;2023-02-13T06:25:22;101182.98;;;4.41;90.30
62703;BME280;66022;50.448;18.122;2023-02-13T06:29:37;101183.72;;;4.44;90.94
62703;BME280;66022;50.448;18.122;2023-02-13T06:33:50;101183.62;;;4.46;91.43
62703;BME280;66022;50.448;18.122;2023-02-13T06:38:04;101183.25;;;4.47;92.19
62703;BME280;66022;50.448;18.122;2023-02-13T06:42:18;101183.23;;;4.49;91.10
62703;BME280;66022;50.448;18.122;2023-02-13T06:46:32;101185.36;;;4.45;94.96
62703;BME280;66022;50.448;18.122;2023-02-13T06:50:46;101187.23;;;4.49;91.09
62703;BME280;66022;50.448;18.122;2023-02-13T06:55:01;101189.20;;;4.54;90.68
62703;BME280;66022;50.448;18.122;2023-02-13T06:59:14;101190.99;;;4.56;91.08
62703;BME280;66022;50.448;18.122;2023-02-13T07:03:28;101190.28;;;4.61;90.66
62703;BME280;66022;50.448;18.122;2023-02-13T07:07:42;101190.83;;;4.65;92.04
62703;BME280;66022;50.448;18.122;2023-02-13T07:11:56;101193.01;;;4.71;90.94
62703;BME280;66022;50.448;18.122;2023-02-13T07:16:10;101193.59;;;4.70;92.99
62703;BME280;66022;50.448;18.122;2023-02-13T07:20:24;101193.42;;;4.75;90.85
62703;BME280;66022;50.448;18.122;2023-02-13T07:24:38;101192.69;;;4.81;90.48
62703;BME280;66022;50.448;18.122;2023-02-13T07:28:52;101193.81;;;4.85;91.18
62703;BME280;66022;50.448;18.122;2023-02-13T07:33:06;101192.39;;;4.93;90.59
62703;BME280;66022;50.448;18.122;2023-02-13T07:37:20;101191.08;;;4.99;92.59
62703;BME280;66022;50.448;18.122;2023-02-13T07:41:34;101190.89;;;5.06;90.62
62703;BME280;66022;50.448;18.122;2023-02-13T07:45:48;101189.81;;;5.11;90.54
62703;BME280;66022;50.448;18.122;2023-02-13T07:50:02;101189.23;;;5.17;90.68
62703;BME280;66022;50.448;18.122;2023-02-13T07:54:16;101188.33;;;5.23;90.48
62703;BME280;66022;50.448;18.122;2023-02-13T07:58:30;101188.22;;;5.25;91.28
62703;BME280;66022;50.448;18.122;2023-02-13T08:02:44;101185.82;;;5.33;90.10
62703;BME280;66022;50.448;18.122;2023-02-13T08:06:58;101185.16;;;5.40;92.51
62703;BME280;66022;50.448;18.122;2023-02-13T08:15:26;101185.77;;;5.54;89.84
62703;BME280;66022;50.448;18.122;2023-02-13T08:19:40;101185.28;;;5.58;90.79
62703;BME280;66022;50.448;18.122;2023-02-13T08:23:54;101185.24;;;5.62;90.11
62703;BME280;66022;50.448;18.122;2023-02-13T08:28:08;101185.21;;;5.64;91.21
62703;BME280;66022;50.448;18.122;2023-02-13T08:32:22;101185.53;;;5.70;90.17
62703;BME280;66022;50.448;18.122;2023-02-13T08:36:36;101187.45;;;5.69;93.94
62703;BME280;66022;50.448;18.122;2023-02-13T08:40:50;101189.03;;;5.75;90.17
62703;BME280;66022;50.448;18.122;2023-02-13T08:45:04;101190.01;;;5.80;89.60
62703;BME280;66022;50.448;18.122;2023-02-13T08:49:18;101190.12;;;5.84;89.81
62703;BME280;66022;50.448;18.122;2023-02-13T08:53:32;101188.87;;;5.90;88.88
62703;BME280;66022;50.448;18.122;2023-02-13T08:57:46;101188.31;;;5.94;89.97
62703;BME280;66022;50.448;18.122;2023-02-13T09:02:00;101188.90;;;5.99;88.79
62703;BME280;66022;50.448;18.122;2023-02-13T09:06:14;101188.01;;;5.97;90.97
62703;BME280;66022;50.448;18.122;2023-02-13T09:10:28;101186.66;;;6.00;89.21
62703;BME280;66022;50.448;18.122;2023-02-13T09:14:42;101186.25;;;6.03;88.88
62703;BME280;66022;50.448;18.122;2023-02-13T09:18:56;101185.67;;;6.03;89.39
62703;BME280;66022;50.448;18.122;2023-02-13T09:23:10;101186.56;;;6.06;88.81
62703;BME280;66022;50.448;18.122;2023-02-13T09:27:24;101186.94;;;6.08;89.58
62703;BME280;66022;50.448;18.122;2023-02-13T09:31:38;101188.39;;;6.12;88.89
62703;BME280;66022;50.448;18.122;2023-02-13T09:35:53;101189.15;;;6.15;88.39
62703;BME280;66022;50.448;18.122;2023-02-13T09:40:14;101190.16;;;6.18;89.05
62703;BME280;66022;50.448;18.122;2023-02-13T09:48:35;101192.25;;;6.19;89.54
62703;BME280;66022;50.448;18.122;2023-02-13T09:52:49;101194.60;;;6.22;89.30
62703;BME280;66022;50.448;18.122;2023-02-13T09:57:06;101194.98;;;6.23;90.83
62703;BME280;66022;50.448;18.122;2023-02-13T10:18:16;101192.13;;;6.40;89.38
62703;BME280;66022;50.448;18.122;2023-02-13T10:22:30;101190.93;;;6.45;88.94
62703;BME280;66022;50.448;18.122;2023-02-13T10:26:40;101189.89;;;6.46;91.90
62703;BME280;66022;50.448;18.122;2023-02-13T10:30:55;101186.61;;;6.52;88.74
62703;BME280;66022;50.448;18.122;2023-02-13T10:39:23;101181.03;;;6.60;89.43
62703;BME280;66022;50.448;18.122;2023-02-13T10:43:38;101176.67;;;6.65;89.27
62703;BME280;66022;50.448;18.122;2023-02-13T10:52:10;101166.62;;;6.74;88.89
62703;BME280;66022;50.448;18.122;2023-02-13T10:56:22;101162.81;;;6.73;91.29
62703;BME280;66022;50.448;18.122;2023-02-13T11:00:34;101159.56;;;6.77;89.24
62703;BME280;66022;50.448;18.122;2023-02-13T11:04:46;101156.81;;;6.80;89.25
62703;BME280;66022;50.448;18.122;2023-02-13T11:09:00;101154.43;;;6.79;89.98
62703;BME280;66022;50.448;18.122;2023-02-13T11:13:15;101152.38;;;6.80;90.52
62703;BME280;66022;50.448;18.122;2023-02-13T11:17:33;101149.88;;;6.79;92.01
62703;BME280;66022;50.448;18.122;2023-02-13T11:21:42;101146.91;;;6.82;90.20
62703;BME280;66022;50.448;18.122;2023-02-13T11:26:00;101144.33;;;6.83;90.93
62703;BME280;66022;50.448;18.122;2023-02-13T11:30:32;101141.28;;;6.85;91.23
62703;BME280;66022;50.448;18.122;2023-02-13T11:34:25;101138.19;;;6.87;91.34
62703;BME280;66022;50.448;18.122;2023-02-13T11:38:38;101133.71;;;6.85;92.50
62703;BME280;66022;50.448;18.122;2023-02-13T11:42:52;101129.05;;;6.90;92.19
62703;BME280;66022;50.448;18.122;2023-02-13T11:47:06;101124.69;;;6.93;95.29
62703;BME280;66022;50.448;18.122;2023-02-13T11:51:28;101120.14;;;6.99;92.67
62703;BME280;66022;50.448;18.122;2023-02-13T11:55:37;101115.30;;;7.07;93.08
62703;BME280;66022;50.448;18.122;2023-02-13T11:59:49;101110.82;;;7.17;92.56
62703;BME280;66022;50.448;18.122;2023-02-13T12:08:16;101104.57;;;7.30;93.78
62703;BME280;66022;50.448;18.122;2023-02-13T12:12:34;101102.62;;;7.40;92.57
62703;BME280;66022;50.448;18.122;2023-02-13T12:17:07;101100.36;;;7.45;96.25
62703;BME280;66022;50.448;18.122;2023-02-13T12:50:54;101092.61;;;7.85;90.85
62703;BME280;66022;50.448;18.122;2023-02-13T13:07:57;101086.74;;;8.17;89.60
62703;BME280;66022;50.448;18.122;2023-02-13T13:28:44;101090.95;;;8.10;88.10
62703;BME280;66022;50.448;18.122;2023-02-13T13:33:01;101093.27;;;8.07;87.93
62703;BME280;66022;50.448;18.122;2023-02-13T13:49:55;101099.38;;;7.90;88.34
62703;BME280;66022;50.448;18.122;2023-02-13T13:58:25;101096.36;;;7.79;89.83
62703;BME280;66022;50.448;18.122;2023-02-13T14:11:02;101099.27;;;7.74;88.35
62703;BME280;66022;50.448;18.122;2023-02-13T14:23:45;101095.29;;;7.64;88.32
62703;BME280;66022;50.448;18.122;2023-02-13T14:27:59;101094.22;;;7.58;88.71
62703;BME280;66022;50.448;18.122;2023-02-13T14:36:27;101093.79;;;7.46;89.52
62703;BME280;66022;50.448;18.122;2023-02-13T14:40:44;101092.21;;;7.42;86.78
62703;BME280;66022;50.448;18.122;2023-02-13T14:44:55;101089.62;;;7.38;87.19
62703;BME280;66022;50.448;18.122;2023-02-13T14:53:23;101081.66;;;7.30;87.04
62703;BME280;66022;50.448;18.122;2023-02-13T15:06:09;101073.66;;;7.17;87.75
62703;BME280;66022;50.448;18.122;2023-02-13T15:14:33;101067.81;;;7.11;86.87
62703;BME280;66022;50.448;18.122;2023-02-13T15:18:47;101066.94;;;7.04;87.32
62703;BME280;66022;50.448;18.122;2023-02-13T15:23:03;101066.36;;;7.02;87.08
62703;BME280;66022;50.448;18.122;2023-02-13T15:27:18;101063.78;;;6.97;88.38
62703;BME280;66022;50.448;18.122;2023-02-13T15:31:29;101061.72;;;6.95;87.01
62703;BME280;66022;50.448;18.122;2023-02-13T15:35:42;101059.23;;;6.92;87.36
62703;BME280;66022;50.448;18.122;2023-02-13T15:40:12;101059.09;;;6.89;87.90
62703;BME280;66022;50.448;18.122;2023-02-13T15:48:24;101058.14;;;6.79;88.15
62703;BME280;66022;50.448;18.122;2023-02-13T15:52:38;101057.10;;;6.78;87.23
62703;BME280;66022;50.448;18.122;2023-02-13T15:56:53;101057.60;;;6.74;89.66
62703;BME280;66022;50.448;18.122;2023-02-13T16:01:06;101058.39;;;6.73;87.90
62703;BME280;66022;50.448;18.122;2023-02-13T16:05:21;101059.99;;;6.70;87.93
62703;BME280;66022;50.448;18.122;2023-02-13T16:09:34;101062.61;;;6.66;87.89
62703;BME280;66022;50.448;18.122;2023-02-13T16:18:02;101062.57;;;6.62;88.67
62703;BME280;66022;50.448;18.122;2023-02-13T16:26:31;101060.64;;;6.51;90.47
62703;BME280;66022;50.448;18.122;2023-02-13T16:30:45;101059.59;;;6.49;88.13
62703;BME280;66022;50.448;18.122;2023-02-13T16:39:31;101054.53;;;6.42;88.83
62703;BME280;66022;50.448;18.122;2023-02-13T16:47:40;101054.58;;;6.34;89.71
62703;BME280;66022;50.448;18.122;2023-02-13T16:51:56;101055.91;;;6.33;88.71
62703;BME280;66022;50.448;18.122;2023-02-13T16:56:11;101057.48;;;6.29;90.18
62703;BME280;66022;50.448;18.122;2023-02-13T17:00:22;101059.06;;;6.29;88.74
62703;BME280;66022;50.448;18.122;2023-02-13T17:04:36;101058.73;;;6.29;88.52
62703;BME280;66022;50.448;18.122;2023-02-13T17:08:51;101056.68;;;6.25;89.19
62703;BME280;66022;50.448;18.122;2023-02-13T17:13:11;101057.26;;;6.24;88.82
62703;BME280;66022;50.448;18.122;2023-02-13T17:17:19;101058.22;;;6.22;90.21
62703;BME280;66022;50.448;18.122;2023-02-13T17:21:33;101053.13;;;6.23;88.98
62703;BME280;66022;50.448;18.122;2023-02-13T17:25:47;101051.87;;;6.22;89.02
62703;BME280;66022;50.448;18.122;2023-02-13T17:30:01;101048.24;;;6.19;89.24
62703;BME280;66022;50.448;18.122;2023-02-13T17:34:15;101048.61;;;6.18;89.06
62703;BME280;66022;50.448;18.122;2023-02-13T17:38:29;101047.14;;;6.12;89.58
62703;BME280;66022;50.448;18.122;2023-02-13T17:42:47;101043.87;;;6.12;89.09
62703;BME280;66022;50.448;18.122;2023-02-13T17:46:57;101038.53;;;6.09;91.11
62703;BME280;66022;50.448;18.122;2023-02-13T17:51:15;101035.03;;;6.08;89.26
62703;BME280;66022;50.448;18.122;2023-02-13T17:55:27;101035.06;;;6.07;89.24
62703;BME280;66022;50.448;18.122;2023-02-13T17:59:39;101034.86;;;6.06;89.38
62703;BME280;66022;50.448;18.122;2023-02-13T18:03:53;101036.94;;;6.05;89.12
62703;BME280;66022;50.448;18.122;2023-02-13T18:08:07;101038.73;;;6.03;89.86
62703;BME280;66022;50.448;18.122;2023-02-13T18:12:22;101041.69;;;6.05;88.92
62703;BME280;66022;50.448;18.122;2023-02-13T18:16:35;101044.11;;;6.01;91.78
62703;BME280;66022;50.448;18.122;2023-02-13T18:20:53;101044.90;;;6.04;88.95
62703;BME280;66022;50.448;18.122;2023-02-13T18:25:03;101043.63;;;6.06;88.85
62703;BME280;66022;50.448;18.122;2023-02-13T18:29:17;101040.73;;;6.07;89.05
62703;BME280;66022;50.448;18.122;2023-02-13T18:33:31;101035.69;;;6.09;88.69
62703;BME280;66022;50.448;18.122;2023-02-13T18:37:45;101028.69;;;6.08;90.16
62703;BME280;66022;50.448;18.122;2023-02-13T18:41:59;101023.64;;;6.08;89.00
62703;BME280;66022;50.448;18.122;2023-02-13T18:46:13;101024.13;;;6.02;91.13
62703;BME280;66022;50.448;18.122;2023-02-13T18:50:27;101022.83;;;6.02;89.05
62703;BME280;66022;50.448;18.122;2023-02-13T18:54:41;101020.62;;;6.03;88.70
62703;BME280;66022;50.448;18.122;2023-02-13T18:58:55;101018.70;;;6.00;89.50
62703;BME280;66022;50.448;18.122;2023-02-13T19:03:09;101019.95;;;6.00;88.91
62703;BME280;66022;50.448;18.122;2023-02-13T19:07:23;101021.31;;;5.97;90.52
62703;BME280;66022;50.448;18.122;2023-02-13T19:11:37;101024.20;;;5.97;88.65
62703;BME280;66022;50.448;18.122;2023-02-13T19:15:56;101025.03;;;5.94;88.86
62703;BME280;66022;50.448;18.122;2023-02-13T19:20:05;101026.73;;;5.92;89.23
62703;BME280;66022;50.448;18.122;2023-02-13T19:24:19;101026.53;;;5.91;89.04
62703;BME280;66022;50.448;18.122;2023-02-13T19:28:33;101029.47;;;5.85;89.82
62703;BME280;66022;50.448;18.122;2023-02-13T19:32:47;101031.43;;;5.86;89.41
62703;BME280;66022;50.448;18.122;2023-02-13T19:37:01;101034.22;;;5.84;91.41
62703;BME280;66022;50.448;18.122;2023-02-13T19:41:15;101037.81;;;5.84;89.45
62703;BME280;66022;50.448;18.122;2023-02-13T19:45:29;101040.48;;;5.84;88.90
62703;BME280;66022;50.448;18.122;2023-02-13T19:49:43;101042.74;;;5.85;89.25
62703;BME280;66022;50.448;18.122;2023-02-13T19:53:58;101045.95;;;5.87;88.80
62703;BME280;66022;50.448;18.122;2023-02-13T19:58:11;101049.32;;;5.84;89.82
62703;BME280;66022;50.448;18.122;2023-02-13T20:02:25;101051.62;;;5.86;88.88
62703;BME280;66022;50.448;18.122;2023-02-13T20:06:39;101052.26;;;5.82;91.74
62703;BME280;66022;50.448;18.122;2023-02-13T20:10:53;101053.45;;;5.83;88.82
62703;BME280;66022;50.448;18.122;2023-02-13T20:15:07;101054.21;;;5.83;88.79
62703;BME280;66022;50.448;18.122;2023-02-13T20:19:21;101054.52;;;5.82;89.24
62703;BME280;66022;50.448;18.122;2023-02-13T20:23:35;101054.53;;;5.83;89.04
62703;BME280;66022;50.448;18.122;2023-02-13T20:27:49;101057.53;;;5.83;89.83
62703;BME280;66022;50.448;18.122;2023-02-13T20:32:03;101062.13;;;5.83;88.49
62703;BME280;66022;50.448;18.122;2023-02-13T20:36:20;101067.07;;;5.77;90.48
62703;BME280;66022;50.448;18.122;2023-02-13T20:40:31;101072.01;;;5.74;88.90
62703;BME280;66022;50.448;18.122;2023-02-13T20:44:47;101076.42;;;5.72;88.85
62703;BME280;66022;50.448;18.122;2023-02-13T20:48:59;101078.96;;;5.70;89.58
62703;BME280;66022;50.448;18.122;2023-02-13T20:53:13;101082.84;;;5.71;89.02
62703;BME280;66022;50.448;18.122;2023-02-13T20:57:27;101085.35;;;5.72;90.17
62703;BME280;66022;50.448;18.122;2023-02-13T21:01:41;101089.03;;;5.74;88.80
62703;BME280;66022;50.448;18.122;2023-02-13T21:05:56;101093.16;;;5.77;88.71
62703;BME280;66022;50.448;18.122;2023-02-13T21:10:09;101096.37;;;5.78;88.84
62703;BME280;66022;50.448;18.122;2023-02-13T21:14:23;101099.77;;;5.80;88.57
62703;BME280;66022;50.448;18.122;2023-02-13T21:18:37;101103.14;;;5.79;89.15
62703;BME280;66022;50.448;18.122;2023-02-13T21:22:51;101106.32;;;5.82;88.64
62703;BME280;66022;50.448;18.122;2023-02-13T21:27:05;101109.91;;;5.83;90.63
62703;BME280;66022;50.448;18.122;2023-02-13T21:31:23;101112.84;;;5.86;89.16
62703;BME280;66022;50.448;18.122;2023-02-13T21:35:33;101113.65;;;5.88;89.21
62703;BME280;66022;50.448;18.122;2023-02-13T21:39:47;101112.78;;;5.89;89.56
62703;BME280;66022;50.448;18.122;2023-02-13T21:44:01;101110.74;;;5.92;89.19
62703;BME280;66022;50.448;18.122;2023-02-13T21:48:15;101106.69;;;5.90;89.89
62703;BME280;66022;50.448;18.122;2023-02-13T21:52:29;101102.28;;;5.93;89.07
62703;BME280;66022;50.448;18.122;2023-02-13T21:56:43;101097.66;;;5.92;91.52
62703;BME280;66022;50.448;18.122;2023-02-13T22:00:57;101095.61;;;5.96;88.84
62703;BME280;66022;50.448;18.122;2023-02-13T22:05:11;101094.25;;;5.98;88.57
62703;BME280;66022;50.448;18.122;2023-02-13T22:09:25;101092.13;;;6.00;88.74
62703;BME280;66022;50.448;18.122;2023-02-13T22:13:39;101091.22;;;6.03;88.61
62703;BME280;66022;50.448;18.122;2023-02-13T22:17:53;101091.64;;;6.04;89.45
62703;BME280;66022;50.448;18.122;2023-02-13T22:22:07;101091.72;;;6.07;88.23
62703;BME280;66022;50.448;18.122;2023-02-13T22:26:22;101092.01;;;6.05;90.45
62703;BME280;66022;50.448;18.122;2023-02-13T22:30:35;101093.02;;;6.09;88.28
62703;BME280;66022;50.448;18.122;2023-02-13T22:34:49;101095.12;;;6.13;88.23
62703;BME280;66022;50.448;18.122;2023-02-13T22:39:03;101096.00;;;6.14;88.21
62703;BME280;66022;50.448;18.122;2023-02-13T22:43:17;101097.81;;;6.17;87.92
62703;BME280;66022;50.448;18.122;2023-02-13T22:47:30;101099.77;;;6.18;88.72
62703;BME280;66022;50.448;18.122;2023-02-13T22:51:45;101100.32;;;6.20;87.78
62703;BME280;66022;50.448;18.122;2023-02-13T22:56:00;101100.49;;;6.20;88.03
62703;BME280;66022;50.448;18.122;2023-02-13T23:00:13;101099.91;;;6.21;88.03
62703;BME280;66022;50.448;18.122;2023-02-13T23:04:27;101098.86;;;6.21;87.76
62703;BME280;66022;50.448;18.122;2023-02-13T23:08:43;101097.05;;;6.16;88.44
62703;BME280;66022;50.448;18.122;2023-02-13T23:12:55;101095.48;;;6.17;88.16
62703;BME280;66022;50.448;18.122;2023-02-13T23:17:09;101094.00;;;6.14;89.35
62703;BME280;66022;50.448;18.122;2023-02-13T23:21:23;101094.33;;;6.14;87.93
62703;BME280;66022;50.448;18.122;2023-02-13T23:25:37;101094.70;;;6.12;87.64
62703;BME280;66022;50.448;18.122;2023-02-13T23:29:51;101095.03;;;6.10;88.07
62703;BME280;66022;50.448;18.122;2023-02-13T23:34:05;101095.95;;;6.08;88.04
62703;BME280;66022;50.448;18.122;2023-02-13T23:38:19;101095.54;;;6.03;88.59
62703;BME280;66022;50.448;18.122;2023-02-13T23:42:33;101095.89;;;6.03;88.15
62703;BME280;66022;50.448;18.122;2023-02-13T23:46:47;101096.04;;;6.00;90.27
62703;BME280;66022;50.448;18.122;2023-02-13T23:51:01;101096.62;;;6.00;88.10
62703;BME280;66022;50.448;18.122;2023-02-13T23:55:15;101094.70;;;6.00;87.81
62703;BME280;66022;50.448;18.122;2023-02-13T23:59:31;101092.16;;;5.98;88.51
